Time;durP1;ratioP1;P1;durP2;ratioP2;P2;SDS_P1;SDS_P2;PMS_P1;PMS_P2;Temp;Humidity;BMP_temperature;BMP_pressure;BME280_temperature;BME280_humidity;BME280_pressure;Samples;Min_cycle;Max_cycle;Signal;HPM_P1;HPM_P2
2021/06/21 00:00:22;;;;;;;7.73;5.07;;;22.00;99.90;;;;;;5078935;28;20485;-80
2021/06/21 00:02:49;;;;;;;5.23;4.73;;;22.00;99.90;;;;;;5079355;28;20465;-79
2021/06/21 00:05:17;;;;;;;6.57;5.97;;;22.10;99.90;;;;;;5071965;28;20559;-80
2021/06/21 00:07:44;;;;;;;5.63;5.20;;;22.00;99.90;;;;;;5073277;28;20541;-79
2021/06/21 00:10:14;;;;;;;5.93;5.33;;;22.00;99.90;;;;;;5081435;28;20462;-80
2021/06/21 00:12:44;;;;;;;6.03;5.40;;;22.00;99.90;;;;;;5077915;28;20489;-79
2021/06/21 00:15:14;;;;;;;6.67;6.07;;;22.00;99.90;;;;;;5087085;28;20469;-78
2021/06/21 00:17:41;;;;;;;6.50;5.90;;;22.00;99.90;;;;;;5088243;28;20454;-79
2021/06/21 00:20:09;;;;;;;6.80;6.20;;;22.00;99.90;;;;;;5087616;28;20511;-78
2021/06/21 00:22:36;;;;;;;15.13;7.27;;;22.10;99.90;;;;;;5084315;28;20457;-78
2021/06/21 00:25:04;;;;;;;8.73;7.93;;;22.10;99.90;;;;;;5081693;28;20465;-77
2021/06/21 00:27:34;;;;;;;10.50;8.70;;;22.10;99.90;;;;;;5087646;28;21063;-77
2021/06/21 00:30:01;;;;;;;9.73;8.73;;;22.00;99.90;;;;;;5089013;28;20461;-78
2021/06/21 00:32:29;;;;;;;12.17;9.53;;;21.90;99.90;;;;;;5089226;28;20461;-78
2021/06/21 00:34:56;;;;;;;11.63;9.67;;;21.80;99.90;;;;;;5081864;28;20452;-78
2021/06/21 00:37:23;;;;;;;11.60;10.40;;;21.80;99.90;;;;;;5087402;28;20504;-77
2021/06/21 00:39:50;;;;;;;11.80;10.30;;;21.80;99.90;;;;;;5084020;28;20545;-78
2021/06/21 00:42:17;;;;;;;12.70;10.20;;;21.80;99.90;;;;;;5078361;28;21158;-79
2021/06/21 00:44:46;;;;;;;11.63;9.73;;;21.70;99.90;;;;;;5089188;28;20987;-78
2021/06/21 00:47:14;;;;;;;12.00;10.73;;;21.70;99.90;;;;;;5085200;28;20595;-80
2021/06/21 00:49:42;;;;;;;12.03;10.30;;;21.70;99.90;;;;;;5077963;28;20458;-78
2021/06/21 00:52:15;;;;;;;11.10;10.10;;;21.70;99.90;;;;;;5082037;28;20464;-79
2021/06/21 00:54:42;;;;;;;10.73;9.70;;;21.70;99.90;;;;;;5087764;28;20464;-81
2021/06/21 00:57:10;;;;;;;12.27;11.00;;;21.60;99.90;;;;;;5078280;28;20492;-79
2021/06/21 00:59:37;;;;;;;12.07;10.87;;;21.60;99.90;;;;;;5088379;28;20876;-82
2021/06/21 01:02:04;;;;;;;11.23;10.13;;;21.60;99.90;;;;;;5095289;28;20467;-78
2021/06/21 01:04:31;;;;;;;14.30;12.90;;;21.60;99.90;;;;;;5082359;28;20465;-80
2021/06/21 01:06:59;;;;;;;13.20;11.80;;;21.60;99.90;;;;;;5081455;28;20451;-79
2021/06/21 01:09:26;;;;;;;13.67;12.37;;;21.60;99.90;;;;;;5086752;28;20470;-79
2021/06/21 01:11:56;;;;;;;13.57;12.17;;;21.60;99.90;;;;;;5081809;28;20461;-79
2021/06/21 01:14:30;;;;;;;12.90;11.80;;;21.60;99.90;;;;;;5087172;28;20973;-80
2021/06/21 01:17:04;;;;;;;13.80;12.57;;;21.60;99.90;;;;;;5086296;28;20669;-79
2021/06/21 01:20:03;;;;;;;14.03;12.70;;;21.60;99.90;;;;;;5083232;28;20479;-81
2021/06/21 01:23:09;;;;;;;12.23;11.07;;;21.60;99.90;;;;;;5081441;28;20935;-80
2021/06/21 01:25:39;;;;;;;14.23;12.73;;;21.70;99.90;;;;;;5079313;28;20497;-78
2021/06/21 01:28:11;;;;;;;16.60;13.33;;;21.70;99.90;;;;;;5078815;28;20455;-78
2021/06/21 01:30:47;;;;;;;16.27;14.57;;;21.70;99.90;;;;;;5080880;28;20462;-79
2021/06/21 01:33:16;;;;;;;16.93;15.13;;;21.60;99.90;;;;;;5083799;28;20466;-79
2021/06/21 01:35:49;;;;;;;19.43;16.23;;;21.60;99.90;;;;;;5082459;28;20460;-81
2021/06/21 01:38:21;;;;;;;18.57;16.57;;;21.70;99.90;;;;;;5077652;28;20470;-79
2021/06/21 01:40:53;;;;;;;18.80;16.77;;;21.70;99.90;;;;;;5083400;28;20486;-79
2021/06/21 01:43:25;;;;;;;18.70;16.90;;;21.60;99.90;;;;;;5079704;28;20466;-78
2021/06/21 01:45:52;;;;;;;20.93;18.73;;;21.60;99.90;;;;;;5076156;28;20466;-78
2021/06/21 01:48:23;;;;;;;21.20;19.10;;;21.60;99.90;;;;;;5082314;28;20463;-78
2021/06/21 01:50:55;;;;;;;20.80;18.80;;;21.50;99.90;;;;;;5074849;28;20461;-78
2021/06/21 01:53:26;;;;;;;22.20;19.97;;;21.60;99.90;;;;;;5080517;28;20839;-81
2021/06/21 01:55:59;;;;;;;22.77;20.37;;;21.60;99.90;;;;;;5070445;28;20471;-78
2021/06/21 01:58:28;;;;;;;22.57;20.13;;;21.60;99.90;;;;;;5067288;28;20489;-78
2021/06/21 02:00:55;;;;;;;23.13;20.17;;;21.60;99.90;;;;;;5075014;28;20485;-79
2021/06/21 02:03:25;;;;;;;22.17;19.97;;;21.60;99.90;;;;;;5070635;28;20466;-79
2021/06/21 02:05:53;;;;;;;22.50;20.00;;;21.60;99.90;;;;;;5081918;28;20454;-79
2021/06/21 02:08:22;;;;;;;20.47;18.30;;;21.60;99.90;;;;;;5071261;28;20491;-80
2021/06/21 02:10:52;;;;;;;21.90;19.77;;;21.60;99.90;;;;;;5074966;28;20965;-78
2021/06/21 02:13:20;;;;;;;22.07;19.90;;;21.60;99.90;;;;;;5075027;28;20462;-79
2021/06/21 02:15:49;;;;;;;22.57;20.30;;;21.60;99.90;;;;;;5077336;28;20459;-79
2021/06/21 02:18:19;;;;;;;22.67;20.43;;;21.50;99.90;;;;;;5069007;28;21072;-78
2021/06/21 02:20:48;;;;;;;24.70;22.40;;;21.50;99.90;;;;;;5075435;28;20454;-79
2021/06/21 02:23:16;;;;;;;26.13;23.53;;;21.40;99.90;;;;;;5078155;28;20454;-78
2021/06/21 02:25:45;;;;;;;24.77;22.17;;;21.30;99.90;;;;;;5069115;28;20469;-78
2021/06/21 02:28:13;;;;;;;23.80;21.23;;;21.20;99.90;;;;;;5077055;28;20997;-79
2021/06/21 02:30:40;;;;;;;21.93;19.43;;;21.20;99.90;;;;;;5074767;28;20463;-79
2021/06/21 02:33:07;;;;;;;21.83;19.53;;;21.20;99.90;;;;;;5080063;28;20909;-79
2021/06/21 02:35:34;;;;;;;19.60;17.60;;;21.20;99.90;;;;;;5076836;28;20465;-81
2021/06/21 02:38:02;;;;;;;18.93;17.13;;;21.20;99.90;;;;;;5077197;28;20486;-79
2021/06/21 02:40:29;;;;;;;19.50;17.33;;;21.20;99.90;;;;;;5075057;28;20458;-79
2021/06/21 02:42:56;;;;;;;18.80;17.13;;;21.20;99.90;;;;;;5079489;28;20546;-79
2021/06/21 02:45:23;;;;;;;18.93;16.93;;;21.20;99.90;;;;;;5076262;28;20469;-79
2021/06/21 02:47:50;;;;;;;15.40;13.87;;;21.20;99.90;;;;;;5072675;28;20489;-79
2021/06/21 02:50:18;;;;;;;14.23;12.93;;;21.20;99.90;;;;;;5073250;28;20490;-79
2021/06/21 02:52:54;;;;;;;12.87;11.67;;;21.20;99.90;;;;;;5081077;28;21073;-79
2021/06/21 02:55:26;;;;;;;11.80;10.70;;;21.20;99.90;;;;;;5078483;28;20465;-80
2021/06/21 02:58:00;;;;;;;12.17;11.07;;;21.20;99.90;;;;;;5078613;28;20486;-82
2021/06/21 03:00:28;;;;;;;10.93;10.03;;;21.20;99.90;;;;;;5079382;28;20864;-79
2021/06/21 03:02:56;;;;;;;9.93;9.10;;;21.20;99.90;;;;;;5082438;28;20515;-80
2021/06/21 03:05:24;;;;;;;8.70;7.90;;;21.20;99.90;;;;;;5080123;28;20454;-79
2021/06/21 03:07:53;;;;;;;7.97;7.30;;;21.20;99.90;;;;;;5074043;28;20515;-79
2021/06/21 03:10:23;;;;;;;7.10;6.60;;;21.10;99.90;;;;;;5079798;28;20485;-79
2021/06/21 03:12:50;;;;;;;7.80;7.10;;;21.10;99.90;;;;;;5074270;28;20489;-79
2021/06/21 03:15:21;;;;;;;7.30;6.80;;;21.10;99.90;;;;;;5073246;28;20983;-79
2021/06/21 03:17:50;;;;;;;6.60;5.60;;;21.10;99.90;;;;;;5078839;28;20494;-79
2021/06/21 03:20:19;;;;;;;7.50;6.90;;;21.10;99.90;;;;;;5079915;28;20485;-80
2021/06/21 03:22:47;;;;;;;9.03;5.80;;;21.10;99.90;;;;;;5085216;28;20514;-80
2021/06/21 03:25:15;;;;;;;6.83;6.20;;;21.00;99.90;;;;;;5079006;28;20797;-79
2021/06/21 03:27:43;;;;;;;6.53;6.03;;;21.00;99.90;;;;;;5088479;28;20461;-79
2021/06/21 03:30:14;;;;;;;7.33;6.63;;;21.00;99.90;;;;;;5079098;28;20806;-79
2021/06/21 03:32:43;;;;;;;7.07;6.53;;;21.00;99.90;;;;;;5083025;28;20462;-79
2021/06/21 03:35:12;;;;;;;7.00;6.50;;;20.90;99.90;;;;;;5078754;28;20466;-81
2021/06/21 03:37:39;;;;;;;7.73;7.13;;;21.00;99.90;;;;;;5082307;28;20488;-79
2021/06/21 03:40:09;;;;;;;7.70;7.00;;;20.90;99.90;;;;;;5080327;28;20469;-79
2021/06/21 03:42:37;;;;;;;8.10;7.40;;;20.80;99.90;;;;;;5082591;28;20458;-79
2021/06/21 03:45:06;;;;;;;7.87;7.27;;;20.80;99.90;;;;;;5080280;28;20445;-80
2021/06/21 03:47:34;;;;;;;7.77;6.97;;;20.80;99.90;;;;;;5087306;28;20965;-80
2021/06/21 03:50:01;;;;;;;8.00;7.40;;;20.90;99.90;;;;;;5084120;28;20478;-80
2021/06/21 03:52:28;;;;;;;7.90;7.20;;;20.90;99.90;;;;;;5079897;28;20476;-82
2021/06/21 03:55:07;;;;;;;8.73;7.93;;;20.90;99.90;;;;;;5077132;28;20463;-82
2021/06/21 03:57:35;;;;;;;8.43;7.73;;;20.90;99.90;;;;;;5084372;28;21211;-80
2021/06/21 04:00:02;;;;;;;8.57;7.77;;;20.90;99.90;;;;;;5086504;28;20491;-79
2021/06/21 04:02:30;;;;;;;7.93;7.13;;;20.90;99.90;;;;;;5079162;28;20461;-80
2021/06/21 04:04:57;;;;;;;7.30;6.80;;;20.90;99.90;;;;;;5087116;28;20479;-81
2021/06/21 04:07:24;;;;;;;7.37;6.80;;;20.90;99.90;;;;;;5077353;28;20462;-80
2021/06/21 04:09:51;;;;;;;7.87;7.10;;;20.90;99.90;;;;;;5080083;28;20466;-79
2021/06/21 04:12:18;;;;;;;7.20;6.50;;;20.90;99.90;;;;;;5084078;28;20803;-82
2021/06/21 04:14:45;;;;;;;6.80;6.20;;;20.80;99.90;;;;;;5079660;28;20458;-80
2021/06/21 04:17:12;;;;;;;7.97;7.17;;;20.70;99.90;;;;;;5083601;28;20600;-80
2021/06/21 04:19:41;;;;;;;6.80;6.20;;;20.70;99.90;;;;;;5077141;28;20819;-80
2021/06/21 04:22:08;;;;;;;7.47;6.87;;;20.70;99.90;;;;;;5076664;28;21039;-82
2021/06/21 04:24:35;;;;;;;6.77;6.20;;;20.80;99.90;;;;;;5083261;28;20461;-80
2021/06/21 04:27:02;;;;;;;7.77;7.17;;;20.70;99.90;;;;;;5083974;28;20536;-79
2021/06/21 04:29:28;;;;;;;7.40;6.70;;;20.70;99.90;;;;;;5082483;28;20617;-79
2021/06/21 04:31:55;;;;;;;7.70;7.00;;;20.60;99.90;;;;;;5080507;28;20462;-80
2021/06/21 04:34:22;;;;;;;6.50;6.00;;;20.60;99.90;;;;;;5084094;28;20464;-79
2021/06/21 04:36:50;;;;;;;5.80;5.30;;;20.50;99.90;;;;;;5082442;28;20461;-79
2021/06/21 04:39:17;;;;;;;6.23;4.37;;;20.50;99.90;;;;;;5082910;28;20458;-79
2021/06/21 04:41:44;;;;;;;3.80;3.50;;;20.50;99.90;;;;;;5085664;28;20460;-79
2021/06/21 04:44:11;;;;;;;4.20;3.90;;;20.40;99.90;;;;;;5084849;28;20878;-79
2021/06/21 04:46:38;;;;;;;3.73;3.43;;;20.40;99.90;;;;;;5090588;28;20458;-79
2021/06/21 04:49:11;;;;;;;4.33;3.93;;;20.30;99.90;;;;;;5078465;28;20469;-79
2021/06/21 04:51:38;;;;;;;3.90;3.60;;;20.30;99.90;;;;;;5082442;28;20992;-80
2021/06/21 04:54:06;;;;;;;3.87;3.57;;;20.30;99.90;;;;;;5082687;28;20466;-80
2021/06/21 04:56:35;;;;;;;3.80;3.50;;;20.20;99.90;;;;;;5088357;28;20461;-79
2021/06/21 04:59:02;;;;;;;4.57;4.17;;;20.20;99.90;;;;;;5079072;28;20607;-79
2021/06/21 05:01:29;;;;;;;4.53;3.93;;;20.20;99.90;;;;;;5079075;28;20478;-81
2021/06/21 05:03:56;;;;;;;5.23;4.83;;;20.10;99.90;;;;;;5076896;28;20560;-79
2021/06/21 05:06:23;;;;;;;5.03;4.30;;;20.00;99.90;;;;;;5076552;28;20551;-79
2021/06/21 05:08:50;;;;;;;4.93;4.53;;;20.00;99.90;;;;;;5083841;28;20482;-79
2021/06/21 05:11:19;;;;;;;5.23;4.73;;;20.00;99.90;;;;;;5081960;28;20615;-81
2021/06/21 05:13:45;;;;;;;5.60;4.80;;;20.00;99.90;;;;;;5074416;28;20455;-79
2021/06/21 05:16:14;;;;;;;7.90;5.70;;;20.00;99.90;;;;;;5079253;28;20457;-79
2021/06/21 05:18:41;;;;;;;7.23;6.53;;;20.00;99.90;;;;;;5085830;28;20896;-82
2021/06/21 05:21:08;;;;;;;6.50;5.90;;;20.00;99.90;;;;;;5085856;28;20848;-82
2021/06/21 05:23:35;;;;;;;11.00;7.07;;;19.90;99.90;;;;;;5084130;28;20464;-79
2021/06/21 05:26:02;;;;;;;9.40;7.40;;;19.90;99.90;;;;;;5081002;28;20465;-79
2021/06/21 05:28:30;;;;;;;7.60;7.00;;;19.70;99.90;;;;;;5080855;28;20454;-82
2021/06/21 05:30:57;;;;;;;8.13;7.30;;;19.70;99.90;;;;;;5085879;28;20468;-80
2021/06/21 05:33:25;;;;;;;7.20;6.60;;;19.70;99.90;;;;;;5093330;28;20489;-80
2021/06/21 05:35:52;;;;;;;7.70;7.00;;;19.70;99.90;;;;;;5078028;28;20752;-79
2021/06/21 05:38:19;;;;;;;8.60;7.90;;;19.60;99.90;;;;;;5087003;28;20531;-79
2021/06/21 05:40:46;;;;;;;8.27;7.57;;;19.70;99.90;;;;;;5082905;28;20818;-79
2021/06/21 05:43:13;;;;;;;8.47;7.77;;;19.70;99.90;;;;;;5083232;28;20584;-80
2021/06/21 05:45:41;;;;;;;7.97;7.27;;;19.70;99.90;;;;;;5083056;28;20506;-80
2021/06/21 05:48:09;;;;;;;8.30;7.50;;;19.70;99.90;;;;;;5072853;28;20467;-79
2021/06/21 05:50:37;;;;;;;9.67;8.67;;;19.70;99.90;;;;;;5082891;28;20453;-82
2021/06/21 05:53:04;;;;;;;8.37;7.47;;;19.70;99.90;;;;;;5076019;28;20990;-81
2021/06/21 05:55:31;;;;;;;8.20;7.50;;;19.80;99.90;;;;;;5079766;28;20457;-81
2021/06/21 05:58:00;;;;;;;7.83;7.10;;;19.80;99.90;;;;;;5077862;28;20510;-79
2021/06/21 06:00:28;;;;;;;7.93;7.17;;;19.70;99.90;;;;;;5079661;28;20884;-70
2021/06/21 06:02:56;;;;;;;7.53;6.20;;;19.70;99.90;;;;;;5079620;28;20977;-70
2021/06/21 06:05:23;;;;;;;7.17;6.57;;;19.70;99.90;;;;;;5064744;28;20581;-70
2021/06/21 06:07:50;;;;;;;7.43;6.80;;;19.70;99.90;;;;;;5071872;28;20504;-71
2021/06/21 06:10:18;;;;;;;7.67;6.97;;;19.70;99.90;;;;;;5064875;28;20468;-70
2021/06/21 06:12:45;;;;;;;7.27;6.67;;;19.60;99.90;;;;;;5071038;28;20460;-70
2021/06/21 06:15:13;;;;;;;7.10;6.50;;;19.60;99.90;;;;;;5064594;28;20954;-70
2021/06/21 06:17:40;;;;;;;8.23;7.43;;;19.50;99.90;;;;;;5067024;28;20616;-70
2021/06/21 06:20:10;;;;;;;6.13;5.63;;;19.50;99.90;;;;;;5074036;28;20473;-70
2021/06/21 06:22:37;;;;;;;7.77;6.33;;;19.50;99.90;;;;;;5071406;28;20461;-70
2021/06/21 06:25:06;;;;;;;9.70;6.97;;;19.40;99.90;;;;;;5069257;28;20839;-70
2021/06/21 06:27:33;;;;;;;6.40;5.80;;;19.40;99.90;;;;;;5071053;28;20466;-70
2021/06/21 06:30:00;;;;;;;7.57;6.57;;;19.40;99.90;;;;;;5077736;28;20462;-70
2021/06/21 06:32:27;;;;;;;7.57;6.87;;;19.40;99.90;;;;;;5078544;28;20502;-70
2021/06/21 06:34:54;;;;;;;6.73;6.13;;;19.40;99.90;;;;;;5074719;28;20528;-70
2021/06/21 06:37:22;;;;;;;6.97;6.30;;;19.30;99.90;;;;;;5078549;28;20602;-70
2021/06/21 06:39:49;;;;;;;8.30;6.60;;;19.30;99.90;;;;;;5074148;28;20473;-69
2021/06/21 06:42:16;;;;;;;9.03;7.03;;;19.30;99.90;;;;;;5075164;28;20453;-70
2021/06/21 06:44:43;;;;;;;7.73;6.87;;;19.30;99.90;;;;;;5068555;28;20470;-70
2021/06/21 06:47:10;;;;;;;9.40;5.90;;;19.30;99.90;;;;;;5081453;28;20960;-70
2021/06/21 06:49:37;;;;;;;6.93;4.80;;;19.30;99.90;;;;;;5075952;28;20493;-70
2021/06/21 06:52:04;;;;;;;5.63;4.20;;;19.30;99.90;;;;;;5076561;28;20465;-70
2021/06/21 06:54:44;;;;;;;4.57;4.17;;;19.30;99.90;;;;;;5072025;28;20470;-70
2021/06/21 06:57:11;;;;;;;4.60;3.87;;;19.30;99.90;;;;;;5065913;28;20978;-70
2021/06/21 06:59:40;;;;;;;4.13;3.83;;;19.30;99.90;;;;;;5071468;28;21000;-70
2021/06/21 07:02:08;;;;;;;4.43;4.03;;;19.20;99.90;;;;;;5076853;28;20457;-71
2021/06/21 07:04:37;;;;;;;4.30;4.00;;;19.20;99.90;;;;;;5074919;28;20542;-70
2021/06/21 07:07:05;;;;;;;4.73;4.27;;;19.10;99.90;;;;;;5073986;28;20472;-70
2021/06/21 07:09:34;;;;;;;4.83;3.67;;;19.10;99.90;;;;;;5072588;28;20686;-70
2021/06/21 07:12:02;;;;;;;3.90;3.30;;;19.10;99.90;;;;;;5068546;28;20465;-71
2021/06/21 07:14:29;;;;;;;4.90;3.83;;;19.10;99.90;;;;;;5068228;28;21122;-70
2021/06/21 07:16:56;;;;;;;4.93;3.67;;;19.10;99.90;;;;;;5079513;28;20544;-70
2021/06/21 07:19:23;;;;;;;5.00;3.70;;;19.00;99.90;;;;;;5076262;28;20495;-70
2021/06/21 07:21:50;;;;;;;3.60;3.30;;;19.00;99.90;;;;;;5072955;28;20457;-70
2021/06/21 07:24:18;;;;;;;2.73;2.53;;;19.10;99.90;;;;;;5074216;28;20561;-70
2021/06/21 07:26:48;;;;;;;2.90;2.70;;;19.10;99.90;;;;;;5070623;28;20492;-71
2021/06/21 07:29:15;;;;;;;2.90;2.70;;;19.00;99.90;;;;;;5068582;28;20467;-71
2021/06/21 07:31:42;;;;;;;2.20;2.00;;;19.10;99.90;;;;;;5069576;28;20461;-70
2021/06/21 07:34:10;;;;;;;2.40;2.20;;;19.10;99.90;;;;;;5068936;28;20989;-70
2021/06/21 07:36:37;;;;;;;2.17;2.07;;;19.10;99.90;;;;;;5072239;28;20461;-70
2021/06/21 07:39:06;;;;;;;1.60;1.40;;;19.10;99.90;;;;;;5080153;28;20492;-69
2021/06/21 07:41:33;;;;;;;1.90;1.80;;;19.10;99.90;;;;;;5075418;28;20463;-69
2021/06/21 07:44:01;;;;;;;1.30;1.20;;;19.10;99.90;;;;;;5074169;28;20466;-70
2021/06/21 07:46:28;;;;;;;2.80;1.50;;;19.20;99.90;;;;;;5079195;28;21030;-70
2021/06/21 07:48:55;;;;;;;2.20;1.40;;;19.20;99.90;;;;;;5073389;28;20465;-71
2021/06/21 07:51:24;;;;;;;1.90;1.50;;;19.30;99.90;;;;;;5075899;28;21260;-69
2021/06/21 07:53:53;;;;;;;1.67;1.57;;;19.30;99.90;;;;;;5073378;28;20550;-70
2021/06/21 07:56:21;;;;;;;1.80;1.70;;;19.30;99.90;;;;;;5071529;28;20467;-70
2021/06/21 07:58:48;;;;;;;1.50;1.40;;;19.30;99.90;;;;;;5073466;28;20473;-70
2021/06/21 08:01:17;;;;;;;1.60;1.50;;;19.30;99.90;;;;;;5067461;28;20516;-71
2021/06/21 08:03:45;;;;;;;1.40;1.30;;;19.30;99.90;;;;;;5057045;28;20604;-70
2021/06/21 08:06:12;;;;;;;1.40;1.20;;;19.30;99.90;;;;;;5054748;28;20466;-70
2021/06/21 08:08:40;;;;;;;3.30;1.20;;;19.30;99.90;;;;;;5055587;28;20476;-70
2021/06/21 08:11:07;;;;;;;1.17;1.07;;;19.40;99.90;;;;;;5047970;28;20514;-70
2021/06/21 08:13:34;;;;;;;1.30;1.20;;;19.40;99.90;;;;;;5056012;28;20471;-70
2021/06/21 08:16:02;;;;;;;1.30;1.20;;;19.40;99.90;;;;;;5047843;28;20828;-70
2021/06/21 08:18:30;;;;;;;1.20;1.10;;;19.30;99.90;;;;;;5045001;28;20497;-71
2021/06/21 08:20:57;;;;;;;2.10;1.00;;;19.20;99.90;;;;;;5046236;28;20465;-71
2021/06/21 08:23:24;;;;;;;1.13;1.03;;;19.20;99.90;;;;;;5056249;28;20461;-69
2021/06/21 08:25:51;;;;;;;1.27;1.17;;;19.20;99.90;;;;;;5049699;28;20471;-70
2021/06/21 08:28:18;;;;;;;2.60;1.37;;;19.20;99.90;;;;;;5043306;28;20458;-70
2021/06/21 08:30:48;;;;;;;1.50;1.40;;;19.20;99.90;;;;;;5043482;28;20566;-71
2021/06/21 08:33:15;;;;;;;1.30;1.20;;;19.30;99.90;;;;;;5050072;28;20762;-71
2021/06/21 08:35:44;;;;;;;1.20;1.10;;;19.50;99.90;;;;;;5047757;28;20929;-70
2021/06/21 08:38:11;;;;;;;1.33;1.00;;;19.60;99.90;;;;;;5050703;28;20462;-70
2021/06/21 08:40:39;;;;;;;1.00;0.90;;;19.80;99.90;;;;;;5051639;28;20463;-70
2021/06/21 08:43:06;;;;;;;1.20;0.83;;;19.90;99.90;;;;;;5049145;28;20469;-70
2021/06/21 08:45:34;;;;;;;1.10;1.00;;;20.00;99.90;;;;;;5052254;28;20465;-69
2021/06/21 08:48:02;;;;;;;1.10;1.00;;;19.90;99.90;;;;;;5055740;28;20451;-70
2021/06/21 08:50:29;;;;;;;1.10;1.00;;;19.90;99.90;;;;;;5052333;28;20466;-71
2021/06/21 08:52:59;;;;;;;1.10;1.00;;;19.90;99.90;;;;;;5056621;28;20459;-70
2021/06/21 08:55:26;;;;;;;1.20;1.10;;;19.80;99.90;;;;;;5055084;28;20462;-71
2021/06/21 08:57:53;;;;;;;1.17;1.00;;;19.80;99.90;;;;;;5055166;28;21294;-71
2021/06/21 09:00:22;;;;;;;1.20;1.10;;;19.70;99.90;;;;;;5059880;28;20503;-70
2021/06/21 09:02:49;;;;;;;1.00;0.90;;;19.70;99.90;;;;;;5076227;28;20489;-70
2021/06/21 09:05:17;;;;;;;1.20;1.10;;;19.80;99.90;;;;;;5075911;28;20464;-71
2021/06/21 09:07:46;;;;;;;1.07;0.97;;;19.90;99.90;;;;;;5072632;28;20466;-71
2021/06/21 09:10:26;;;;;;;1.03;0.93;;;19.90;99.90;;;;;;5070920;28;20840;-71
2021/06/21 09:13:08;;;;;;;1.23;1.13;;;19.90;99.90;;;;;;5075836;28;20472;-71
2021/06/21 09:15:37;;;;;;;1.20;1.00;;;19.90;99.90;;;;;;5075621;28;20467;-71
2021/06/21 09:18:29;;;;;;;2.50;1.00;;;20.00;99.90;;;;;;5078129;28;20470;-70
2021/06/21 09:21:22;;;;;;;1.10;1.00;;;20.10;99.90;;;;;;5071263;28;20605;-70
2021/06/21 09:23:50;;;;;;;1.00;0.90;;;20.10;99.90;;;;;;5068533;28;20472;-70
2021/06/21 09:26:21;;;;;;;2.37;0.90;;;20.20;99.90;;;;;;5071932;28;20454;-70
2021/06/21 09:28:48;;;;;;;1.50;1.23;;;20.30;99.90;;;;;;5071966;28;20496;-70
2021/06/21 09:31:15;;;;;;;2.13;1.10;;;20.30;99.90;;;;;;5078303;28;20458;-70
2021/06/21 09:33:42;;;;;;;2.23;1.37;;;20.30;99.90;;;;;;5072148;28;20587;-71
2021/06/21 09:36:09;;;;;;;1.27;1.17;;;20.30;99.90;;;;;;5075761;28;20466;-71
2021/06/21 09:38:37;;;;;;;1.57;1.20;;;20.40;99.90;;;;;;5080840;28;20561;-71
2021/06/21 09:41:04;;;;;;;1.10;1.00;;;20.50;99.90;;;;;;5072993;28;20469;-70
2021/06/21 09:43:34;;;;;;;1.30;1.20;;;20.50;99.90;;;;;;5073948;28;20469;-70
2021/06/21 09:46:03;;;;;;;1.73;1.10;;;20.50;99.90;;;;;;5079795;28;20465;-70
2021/06/21 09:48:31;;;;;;;1.30;1.20;;;20.50;99.90;;;;;;5078652;28;20469;-71
2021/06/21 09:50:58;;;;;;;1.20;1.10;;;20.50;99.90;;;;;;5077825;28;20811;-71
2021/06/21 09:53:25;;;;;;;2.27;1.40;;;20.50;99.90;;;;;;5071702;28;20903;-72
2021/06/21 09:55:52;;;;;;;1.33;1.23;;;20.60;99.90;;;;;;5076638;28;20455;-71
2021/06/21 09:58:21;;;;;;;1.40;1.30;;;20.50;99.90;;;;;;5068442;28;20464;-70
2021/06/21 10:00:51;;;;;;;1.90;1.03;;;20.50;99.90;;;;;;5069874;28;20487;-71
2021/06/21 10:03:19;;;;;;;1.30;1.20;;;20.50;99.90;;;;;;5067737;28;20471;-71
2021/06/21 10:06:02;;;;;;;1.20;1.10;;;20.50;99.90;;;;;;5073309;28;20459;-71
2021/06/21 10:08:41;;;;;;;1.20;1.10;;;20.50;99.90;;;;;;5074025;28;20854;-71
2021/06/21 10:11:28;;;;;;;1.20;1.10;;;20.50;99.90;;;;;;5083033;28;20462;-71
2021/06/21 10:13:55;;;;;;;1.10;1.00;;;20.40;99.90;;;;;;5081206;28;20457;-72
2021/06/21 10:16:23;;;;;;;1.20;1.10;;;20.40;99.90;;;;;;5075032;28;20639;-71
2021/06/21 10:18:50;;;;;;;1.20;1.10;;;20.40;99.90;;;;;;5076664;28;20473;-71
2021/06/21 10:21:17;;;;;;;1.20;1.10;;;20.50;99.90;;;;;;5076038;28;20463;-71
2021/06/21 10:23:44;;;;;;;1.20;1.10;;;20.60;99.90;;;;;;5075275;28;20462;-71
2021/06/21 10:26:12;;;;;;;1.30;1.20;;;20.70;99.90;;;;;;5077759;28;20485;-71
2021/06/21 10:28:38;;;;;;;1.20;1.10;;;20.70;99.90;;;;;;5071240;28;20465;-71
2021/06/21 10:31:06;;;;;;;1.33;1.23;;;20.70;99.90;;;;;;5071978;28;20471;-71
2021/06/21 10:33:35;;;;;;;1.40;1.30;;;20.70;99.90;;;;;;5072185;28;20463;-81
2021/06/21 10:36:05;;;;;;;1.20;1.10;;;20.70;99.90;;;;;;5070828;28;20472;-82
2021/06/21 10:38:32;;;;;;;1.33;1.23;;;20.80;99.90;;;;;;5079566;28;20554;-80
2021/06/21 10:41:02;;;;;;;1.40;1.30;;;20.90;99.90;;;;;;5079575;28;20476;-81
2021/06/21 10:43:49;;;;;;;1.60;1.30;;;20.90;99.90;;;;;;5075241;28;21082;-81
2021/06/21 10:46:25;;;;;;;1.50;1.40;;;20.90;99.90;;;;;;5077947;28;20493;-81
2021/06/21 10:49:34;;;;;;;1.40;1.30;;;20.90;99.90;;;;;;5069444;28;20474;-80
2021/06/21 10:52:01;;;;;;;1.30;1.20;;;21.00;99.90;;;;;;5068447;28;20466;-81
2021/06/21 10:54:28;;;;;;;1.30;1.20;;;21.00;99.90;;;;;;5075901;28;20461;-81
2021/06/21 10:56:57;;;;;;;1.40;1.30;;;21.00;99.90;;;;;;5076041;28;20469;-82
2021/06/21 10:59:26;;;;;;;1.60;1.50;;;20.90;99.90;;;;;;5077460;28;20462;-82
2021/06/21 11:01:55;;;;;;;1.57;1.47;;;20.80;99.90;;;;;;5071133;28;20841;-80
2021/06/21 11:04:47;;;;;;;1.30;1.20;;;20.70;99.90;;;;;;5075144;28;20482;-81
2021/06/21 11:07:16;;;;;;;1.40;1.30;;;20.60;99.90;;;;;;5061627;28;20460;-80
2021/06/21 11:09:45;;;;;;;1.50;1.40;;;20.60;99.90;;;;;;5076852;28;20607;-81
2021/06/21 11:12:37;;;;;;;1.93;1.50;;;20.60;99.90;;;;;;5072198;28;20469;-80
2021/06/21 11:15:12;;;;;;;1.30;1.20;;;20.60;99.90;;;;;;5069432;28;20465;-82
2021/06/21 11:17:56;;;;;;;1.30;1.20;;;20.60;99.90;;;;;;5073203;28;21055;-80
2021/06/21 11:20:34;;;;;;;1.20;1.10;;;20.60;99.90;;;;;;5076690;28;21012;-81
2021/06/21 11:23:02;;;;;;;1.77;1.10;;;20.50;99.90;;;;;;5076673;28;20524;-81
2021/06/21 11:25:31;;;;;;;1.23;1.13;;;20.50;99.90;;;;;;5077922;28;20822;-81
2021/06/21 11:27:59;;;;;;;1.20;1.10;;;20.40;99.90;;;;;;5072601;28;20929;-80
2021/06/21 11:30:40;;;;;;;2.97;1.70;;;20.30;99.90;;;;;;5074917;28;20489;-81
2021/06/21 11:33:13;;;;;;;1.30;1.20;;;20.20;99.90;;;;;;5076015;28;20450;-80
2021/06/21 11:35:54;;;;;;;1.97;1.30;;;20.20;99.90;;;;;;5067924;28;20458;-80
2021/06/21 11:38:30;;;;;;;1.50;1.40;;;20.20;99.90;;;;;;5079392;28;20507;-81
2021/06/21 11:41:17;;;;;;;2.50;1.60;;;20.10;99.90;;;;;;5078128;28;21010;-81
2021/06/21 11:43:45;;;;;;;2.30;1.63;;;20.00;99.90;;;;;;5077280;28;20459;-81
2021/06/21 11:46:32;;;;;;;1.63;1.50;;;20.00;99.90;;;;;;5074977;28;20479;-81
2021/06/21 11:49:05;;;;;;;2.17;1.60;;;20.00;99.90;;;;;;5067106;28;20905;-82
2021/06/21 11:51:33;;;;;;;1.70;1.60;;;20.00;99.90;;;;;;5067091;28;20890;-80
2021/06/21 11:54:01;;;;;;;1.50;1.40;;;20.00;99.90;;;;;;5075447;28;20468;-81
2021/06/21 11:56:29;;;;;;;2.03;1.93;;;20.00;99.90;;;;;;5075698;28;20459;-80
2021/06/21 11:58:57;;;;;;;2.50;2.40;;;20.00;99.90;;;;;;5076284;28;20476;-81
2021/06/21 12:01:26;;;;;;;1.90;1.80;;;20.00;99.90;;;;;;5072940;28;20492;-81
2021/06/21 12:03:55;;;;;;;2.00;1.90;;;19.90;99.90;;;;;;5074506;28;20503;-80
2021/06/21 12:06:22;;;;;;;1.73;1.63;;;19.90;99.90;;;;;;5074565;28;20522;-80
2021/06/21 12:08:50;;;;;;;1.80;1.70;;;19.90;99.90;;;;;;5069997;28;20466;-80
2021/06/21 12:11:19;;;;;;;1.83;1.73;;;19.80;99.90;;;;;;5075766;28;20491;-80
2021/06/21 12:13:56;;;;;;;2.10;2.00;;;19.90;99.90;;;;;;5069357;28;22337;-80
2021/06/21 12:16:23;;;;;;;1.93;1.83;;;19.90;99.90;;;;;;5077070;28;20552;-81
2021/06/21 12:18:51;;;;;;;1.70;1.60;;;19.90;99.90;;;;;;5073452;28;20515;-79
2021/06/21 12:21:32;;;;;;;1.77;1.67;;;20.00;99.90;;;;;;5067788;28;20458;-80
2021/06/21 12:24:17;;;;;;;1.93;1.83;;;20.10;99.90;;;;;;5072268;28;20462;-81
2021/06/21 12:26:44;;;;;;;2.00;1.90;;;20.10;99.90;;;;;;5065435;28;20960;-80
2021/06/21 12:29:36;;;;;;;1.90;1.80;;;20.10;99.90;;;;;;5074812;28;20855;-80
2021/06/21 12:32:06;;;;;;;2.30;2.20;;;20.20;99.90;;;;;;5054630;28;20467;-80
2021/06/21 12:34:49;;;;;;;2.20;2.10;;;20.10;99.90;;;;;;5067343;28;20568;-80
2021/06/21 12:37:21;;;;;;;2.30;2.10;;;20.10;99.90;;;;;;5074731;28;20527;-80
2021/06/21 12:39:52;;;;;;;2.10;2.00;;;20.10;99.90;;;;;;5061481;28;20476;-82
2021/06/21 12:42:21;;;;;;;2.00;1.90;;;20.10;99.90;;;;;;5070425;28;20476;-81
2021/06/21 12:44:48;;;;;;;2.40;2.30;;;20.00;99.90;;;;;;5070841;28;20480;-80
2021/06/21 12:47:19;;;;;;;2.30;2.20;;;20.10;99.90;;;;;;5078242;28;20627;-82
2021/06/21 12:49:47;;;;;;;2.63;2.53;;;20.10;99.90;;;;;;5078775;28;20566;-81
2021/06/21 12:52:14;;;;;;;2.20;2.10;;;20.20;99.90;;;;;;5074719;28;20458;-81
2021/06/21 12:54:41;;;;;;;2.93;2.73;;;20.30;99.90;;;;;;5078039;28;20462;-80